Time;durP1;ratioP1;P1;durP2;ratioP2;P2;SDS_P1;SDS_P2;PMS_P1;PMS_P2;Temp;Humidity;BMP_temperature;BMP_pressure;BME280_temperature;BME280_humidity;BME280_pressure;Samples;Min_cycle;Max_cycle;Signal;HPM_P1;HPM_P2
2024/03/08 00:02:23;;;;;;;36.40;22.40;;;4.40;38.90;;;;;;5059264;28;20413;-78
2024/03/08 00:04:49;;;;;;;40.60;22.02;;;4.50;40.90;;;;;;5057774;28;20416;-78
2024/03/08 00:07:15;;;;;;;39.90;22.10;;;4.50;39.60;;;;;;5063180;28;20983;-77
2024/03/08 00:09:40;;;;;;;40.00;23.53;;;4.50;39.00;;;;;;5062043;28;20449;-77
2024/03/08 00:12:06;;;;;;;38.60;21.50;;;4.40;40.40;;;;;;5058168;28;20910;-78
2024/03/08 00:14:33;;;;;;;39.43;22.27;;;4.10;39.30;;;;;;5059723;28;20392;-79
2024/03/08 00:16:58;;;;;;;37.80;21.10;;;4.00;39.50;;;;;;5059417;28;20782;-79
2024/03/08 00:19:24;;;;;;;36.90;22.63;;;3.80;39.50;;;;;;5059414;28;20397;-79
2024/03/08 00:21:50;;;;;;;37.08;21.95;;;4.00;41.80;;;;;;5057865;28;20400;-78
2024/03/08 00:24:15;;;;;;;37.55;22.48;;;3.90;40.50;;;;;;5060671;28;20820;-80
2024/03/08 00:26:42;;;;;;;39.87;22.23;;;4.10;41.80;;;;;;5064280;28;20489;-78
2024/03/08 00:29:07;;;;;;;35.22;22.08;;;4.20;41.20;;;;;;5067939;28;20391;-79
2024/03/08 00:31:33;;;;;;;43.30;23.30;;;4.00;40.30;;;;;;5076231;28;20401;-79
2024/03/08 00:33:59;;;;;;;34.40;21.33;;;4.00;40.40;;;;;;5073198;28;20469;-79
2024/03/08 00:36:25;;;;;;;44.08;23.20;;;3.90;39.60;;;;;;5067936;28;20382;-79
2024/03/08 00:38:50;;;;;;;35.75;20.88;;;3.80;40.30;;;;;;5062527;28;20393;-79
2024/03/08 00:41:16;;;;;;;38.80;21.75;;;3.70;40.10;;;;;;5056631;28;20419;-79
2024/03/08 00:43:42;;;;;;;37.33;22.17;;;3.60;41.10;;;;;;5057911;28;20389;-79
2024/03/08 00:46:07;;;;;;;38.47;22.40;;;3.80;42.10;;;;;;5069559;28;20416;-79
2024/03/08 00:48:33;;;;;;;37.67;21.17;;;4.00;42.30;;;;;;5070867;28;20388;-79
2024/03/08 00:50:58;;;;;;;37.03;21.97;;;3.90;40.60;;;;;;5064787;28;20458;-80
2024/03/08 00:53:24;;;;;;;37.17;22.20;;;3.90;39.60;;;;;;5058075;28;20381;-78
2024/03/08 00:55:49;;;;;;;37.93;21.67;;;3.80;39.70;;;;;;5055533;28;20422;-80
2024/03/08 00:58:15;;;;;;;39.07;22.80;;;3.60;40.00;;;;;;5054923;28;20883;-80
2024/03/08 01:00:41;;;;;;;39.38;22.48;;;3.40;40.70;;;;;;5056669;28;20378;-80
2024/03/08 01:03:07;;;;;;;42.60;23.00;;;3.30;41.00;;;;;;5063784;28;20389;-79
2024/03/08 01:05:33;;;;;;;43.15;24.50;;;3.30;41.50;;;;;;5067902;28;20397;-78
2024/03/08 01:07:59;;;;;;;39.17;23.48;;;3.30;42.30;;;;;;5055509;28;20407;-78
2024/03/08 01:10:24;;;;;;;37.90;22.67;;;3.60;42.10;;;;;;5057336;28;20468;-79
2024/03/08 01:12:50;;;;;;;38.47;22.77;;;3.40;40.60;;;;;;5055754;28;20382;-78
2024/03/08 01:15:16;;;;;;;38.63;22.80;;;3.40;40.40;;;;;;5055906;28;20390;-79
2024/03/08 01:17:43;;;;;;;44.58;23.48;;;3.40;41.90;;;;;;5062127;28;20400;-78
2024/03/08 01:20:12;;;;;;;43.57;23.97;;;3.40;42.60;;;;;;5064851;28;20398;-78
2024/03/08 01:22:38;;;;;;;39.55;23.45;;;3.30;42.20;;;;;;5069058;28;20420;-79
2024/03/08 01:25:04;;;;;;;35.83;22.35;;;3.20;42.70;;;;;;5071812;28;20695;-79
2024/03/08 01:27:30;;;;;;;39.63;22.67;;;3.20;40.90;;;;;;5070473;28;20430;-78
2024/03/08 01:29:56;;;;;;;40.38;23.35;;;3.20;41.00;;;;;;5065169;28;20377;-78
2024/03/08 01:32:23;;;;;;;41.90;23.70;;;3.30;42.10;;;;;;5063781;28;20396;-77
2024/03/08 01:34:49;;;;;;;41.70;22.80;;;3.20;41.30;;;;;;5060526;28;20397;-77
2024/03/08 01:37:14;;;;;;;42.60;23.13;;;3.20;40.80;;;;;;5062455;28;20456;-79
2024/03/08 01:39:40;;;;;;;37.65;21.65;;;3.10;41.40;;;;;;5061024;28;20394;-77
2024/03/08 01:42:05;;;;;;;37.83;22.52;;;3.20;41.10;;;;;;5058456;28;20946;-78
2024/03/08 01:44:31;;;;;;;37.70;22.80;;;3.10;41.20;;;;;;5059687;28;20415;-77
2024/03/08 01:46:56;;;;;;;44.60;23.15;;;3.10;41.90;;;;;;5060153;28;20429;-77
2024/03/08 01:49:23;;;;;;;43.17;24.10;;;3.00;43.90;;;;;;5059100;28;20389;-76
2024/03/08 01:51:49;;;;;;;37.88;21.88;;;3.10;42.80;;;;;;5064713;28;20389;-79
2024/03/08 01:54:18;;;;;;;41.58;22.50;;;3.10;43.40;;;;;;5061199;28;20388;-80
2024/03/08 01:56:44;;;;;;;41.30;22.40;;;3.00;42.50;;;;;;5057396;28;20393;-80
2024/03/08 01:59:10;;;;;;;43.17;23.03;;;3.20;42.40;;;;;;5056675;28;20768;-80
2024/03/08 02:01:35;;;;;;;37.97;22.25;;;3.40;42.80;;;;;;5058906;28;20447;-79
2024/03/08 02:04:01;;;;;;;39.35;22.73;;;3.30;42.20;;;;;;5064269;28;20409;-79
2024/03/08 02:06:26;;;;;;;39.30;22.75;;;3.40;43.40;;;;;;5061875;28;20478;-80
2024/03/08 02:08:53;;;;;;;43.47;23.52;;;3.50;43.00;;;;;;5058430;28;20747;-80
2024/03/08 02:11:20;;;;;;;37.95;22.13;;;3.30;42.20;;;;;;5057913;28;20457;-80
2024/03/08 02:13:46;;;;;;;41.85;23.25;;;3.10;42.60;;;;;;5060255;28;20428;-79
2024/03/08 02:16:11;;;;;;;39.08;22.88;;;3.00;44.00;;;;;;5063353;28;20389;-78
2024/03/08 02:18:39;;;;;;;42.90;23.98;;;3.00;42.90;;;;;;5067836;28;20400;-80
2024/03/08 02:21:06;;;;;;;39.15;23.15;;;3.00;43.00;;;;;;5070081;28;20389;-79
2024/03/08 02:23:32;;;;;;;39.67;22.67;;;3.20;41.60;;;;;;5072149;28;20377;-79
2024/03/08 02:25:58;;;;;;;38.58;22.70;;;3.10;41.50;;;;;;5070066;28;20366;-78
2024/03/08 02:28:25;;;;;;;42.93;23.13;;;3.20;42.50;;;;;;5068211;28;20473;-79
2024/03/08 02:30:51;;;;;;;41.75;22.88;;;3.20;42.60;;;;;;5069272;28;20397;-80
2024/03/08 02:33:18;;;;;;;38.92;22.90;;;2.90;42.70;;;;;;5060593;28;20393;-79
2024/03/08 02:35:47;;;;;;;42.70;24.92;;;3.10;43.40;;;;;;5061585;28;20385;-78
2024/03/08 02:38:16;;;;;;;41.87;23.37;;;3.20;44.20;;;;;;5057938;28;20737;-78
2024/03/08 02:40:43;;;;;;;41.78;24.58;;;3.00;44.10;;;;;;5059107;28;20388;-79
2024/03/08 02:43:09;;;;;;;44.33;24.70;;;2.80;44.60;;;;;;5060297;28;20396;-79
2024/03/08 02:45:35;;;;;;;42.33;23.75;;;2.80;46.40;;;;;;5062015;28;20385;-79
2024/03/08 02:48:01;;;;;;;40.45;23.15;;;2.90;43.90;;;;;;5066170;28;20429;-80
2024/03/08 02:50:26;;;;;;;43.63;23.10;;;3.00;43.90;;;;;;5065434;28;20446;-77
2024/03/08 02:52:52;;;;;;;40.65;23.55;;;3.10;44.00;;;;;;5066670;28;20429;-77
2024/03/08 02:55:18;;;;;;;41.00;23.42;;;3.20;42.50;;;;;;5067622;28;20394;-80
2024/03/08 02:57:43;;;;;;;40.20;22.90;;;3.20;41.20;;;;;;5069500;28;20385;-79
2024/03/08 03:00:10;;;;;;;42.77;24.03;;;3.40;40.60;;;;;;5067673;28;20381;-78
2024/03/08 03:02:36;;;;;;;39.50;22.92;;;3.30;41.20;;;;;;5065405;28;20420;-79
2024/03/08 03:05:05;;;;;;;46.40;24.58;;;3.20;41.00;;;;;;5068084;28;20377;-78
2024/03/08 03:07:33;;;;;;;45.10;24.27;;;3.30;41.30;;;;;;5070081;28;20405;-79
2024/03/08 03:10:00;;;;;;;39.70;22.80;;;3.40;40.90;;;;;;5078039;28;20373;-79
2024/03/08 03:12:26;;;;;;;43.58;23.98;;;3.40;40.80;;;;;;5077690;28;20522;-79
2024/03/08 03:14:52;;;;;;;44.90;24.92;;;3.40;40.90;;;;;;5060638;28;20396;-80
2024/03/08 03:17:17;;;;;;;45.77;24.03;;;3.30;40.90;;;;;;5063479;28;20385;-77
2024/03/08 03:19:43;;;;;;;41.93;23.70;;;3.10;41.90;;;;;;5064649;28;20400;-77
2024/03/08 03:22:10;;;;;;;41.67;25.30;;;2.80;43.30;;;;;;5068443;28;20451;-80
2024/03/08 03:24:38;;;;;;;39.50;22.65;;;2.70;44.90;;;;;;5062428;28;20436;-79
2024/03/08 03:27:10;;;;;;;42.60;25.00;;;2.40;45.70;;;;;;5058599;28;20699;-80
2024/03/08 03:29:36;;;;;;;43.50;25.10;;;2.20;47.10;;;;;;5056890;28;20397;-78
2024/03/08 03:32:03;;;;;;;43.72;23.98;;;2.40;47.40;;;;;;5058290;28;20385;-80
2024/03/08 03:34:29;;;;;;;46.45;26.08;;;2.50;46.60;;;;;;5059824;28;20456;-79
2024/03/08 03:36:55;;;;;;;50.37;25.90;;;2.80;45.40;;;;;;5058507;28;20475;-79
2024/03/08 03:39:22;;;;;;;45.67;24.65;;;2.80;45.20;;;;;;5058361;28;20468;-80
2024/03/08 03:41:51;;;;;;;49.67;26.65;;;2.70;45.20;;;;;;5057876;28;20888;-79
2024/03/08 03:44:17;;;;;;;45.10;24.75;;;2.60;45.70;;;;;;5058814;28;20424;-79
2024/03/08 03:46:46;;;;;;;43.45;24.52;;;2.60;45.90;;;;;;5058646;28;20416;-80
2024/03/08 03:49:12;;;;;;;42.20;24.70;;;2.60;45.80;;;;;;5063997;28;20361;-80
2024/03/08 03:51:38;;;;;;;43.40;25.17;;;2.30;47.10;;;;;;5076915;28;20365;-79
2024/03/08 03:54:03;;;;;;;48.47;26.65;;;2.20;48.70;;;;;;5066533;28;20489;-79
2024/03/08 03:56:30;;;;;;;46.00;26.70;;;2.00;49.70;;;;;;5058211;28;20820;-79
2024/03/08 03:58:56;;;;;;;50.58;27.17;;;2.00;49.70;;;;;;5057102;28;20396;-78
2024/03/08 04:01:22;;;;;;;49.60;27.25;;;2.10;50.70;;;;;;5059413;28;20381;-78
2024/03/08 04:03:47;;;;;;;44.25;26.50;;;2.30;49.30;;;;;;5057113;28;20381;-80
2024/03/08 04:06:14;;;;;;;46.80;26.73;;;2.10;50.50;;;;;;5066300;28;20433;-78
2024/03/08 04:08:39;;;;;;;48.05;25.63;;;2.00;51.10;;;;;;5063234;28;20887;-78
2024/03/08 04:11:05;;;;;;;47.23;26.47;;;2.40;50.00;;;;;;5057308;28;20534;-80
2024/03/08 04:13:30;;;;;;;43.93;26.17;;;2.70;48.70;;;;;;5057867;28;20455;-80
2024/03/08 04:15:56;;;;;;;49.13;26.63;;;2.70;48.10;;;;;;5057207;28;20385;-79
2024/03/08 04:18:22;;;;;;;45.15;26.73;;;2.70;47.90;;;;;;5056306;28;20477;-78
2024/03/08 04:20:47;;;;;;;51.35;27.70;;;2.60;48.50;;;;;;5055183;28;20969;-79
2024/03/08 04:23:13;;;;;;;46.92;25.90;;;2.50;49.10;;;;;;5058551;28;20847;-78
2024/03/08 04:25:38;;;;;;;49.03;27.73;;;2.50;49.30;;;;;;5060178;28;20389;-79
2024/03/08 04:28:04;;;;;;;48.10;27.37;;;2.40;49.80;;;;;;5064443;28;20401;-79
2024/03/08 04:30:30;;;;;;;46.53;26.20;;;2.40;49.80;;;;;;5062178;28;20381;-79
2024/03/08 04:32:55;;;;;;;49.20;27.35;;;2.50;49.60;;;;;;5064973;28;20465;-80
2024/03/08 04:35:21;;;;;;;47.67;26.92;;;2.30;49.80;;;;;;5058762;28;20454;-79
2024/03/08 04:37:47;;;;;;;51.50;28.30;;;2.00;52.10;;;;;;5068623;28;20479;-78
2024/03/08 04:40:12;;;;;;;52.43;27.30;;;2.20;51.50;;;;;;5074551;28;20408;-79
2024/03/08 04:42:39;;;;;;;47.97;27.13;;;2.20;51.60;;;;;;5063315;28;20396;-80
2024/03/08 04:45:07;;;;;;;52.88;26.80;;;2.00;51.50;;;;;;5058225;28;20392;-80
2024/03/08 04:47:33;;;;;;;50.70;27.55;;;1.70;53.60;;;;;;5059239;28;20406;-81
2024/03/08 04:49:59;;;;;;;46.97;27.27;;;1.90;54.20;;;;;;5058681;28;20401;-80
2024/03/08 04:52:25;;;;;;;46.30;27.10;;;1.90;53.50;;;;;;5058203;28;20456;-81
2024/03/08 04:54:52;;;;;;;50.90;28.10;;;1.80;53.30;;;;;;5058295;28;20386;-81
2024/03/08 04:57:18;;;;;;;46.00;27.23;;;1.90;54.10;;;;;;5058197;28;20390;-79
2024/03/08 04:59:43;;;;;;;47.45;27.20;;;2.00;52.00;;;;;;5057605;28;20462;-79
2024/03/08 05:02:09;;;;;;;51.55;28.13;;;1.90;54.10;;;;;;5056900;28;20799;-80
2024/03/08 05:04:35;;;;;;;49.95;28.58;;;1.80;52.70;;;;;;5058195;28;20381;-80
2024/03/08 05:07:04;;;;;;;54.55;26.70;;;1.70;53.90;;;;;;5056850;28;20410;-79
2024/03/08 05:09:31;;;;;;;52.53;27.45;;;1.80;53.20;;;;;;5058835;28;20389;-80
2024/03/08 05:11:59;;;;;;;47.03;27.70;;;1.70;53.80;;;;;;5058417;28;20385;-80
2024/03/08 05:14:25;;;;;;;50.17;28.10;;;1.70;54.70;;;;;;5054653;28;20442;-79
2024/03/08 05:16:51;;;;;;;48.78;27.30;;;1.70;54.80;;;;;;5057903;28;20465;-79
2024/03/08 05:19:17;;;;;;;50.53;27.98;;;1.70;53.30;;;;;;5068895;28;20408;-81
2024/03/08 05:21:44;;;;;;;49.15;27.05;;;1.50;54.90;;;;;;5069901;28;20385;-79
2024/03/08 05:24:10;;;;;;;50.90;28.20;;;1.30;57.00;;;;;;5068575;28;20377;-80
2024/03/08 05:26:37;;;;;;;51.40;27.65;;;1.70;57.20;;;;;;5069609;28;20460;-79
2024/03/08 05:29:03;;;;;;;48.22;27.10;;;1.80;54.40;;;;;;5070698;28;20386;-78
2024/03/08 05:31:30;;;;;;;50.88;26.85;;;1.80;54.40;;;;;;5072943;28;20437;-77
2024/03/08 05:33:56;;;;;;;50.40;28.05;;;1.70;55.00;;;;;;5075455;28;20408;-78
2024/03/08 05:36:22;;;;;;;50.10;27.40;;;1.50;57.80;;;;;;5073604;28;20397;-81
2024/03/08 05:38:50;;;;;;;47.87;27.57;;;1.60;56.70;;;;;;5066220;28;20414;-80
2024/03/08 05:41:17;;;;;;;50.25;27.20;;;1.70;56.10;;;;;;5047226;28;20414;-79
2024/03/08 05:43:43;;;;;;;50.55;28.08;;;1.60;56.10;;;;;;5051133;28;20395;-79
2024/03/08 05:46:10;;;;;;;50.47;27.52;;;1.70;55.90;;;;;;5045512;28;20403;-81
2024/03/08 05:48:36;;;;;;;51.22;28.80;;;1.60;57.10;;;;;;5041693;28;20451;-80
2024/03/08 05:51:01;;;;;;;49.90;27.77;;;1.80;56.70;;;;;;5041704;28;20417;-80
2024/03/08 05:53:27;;;;;;;48.63;26.97;;;1.90;55.80;;;;;;5047966;28;20394;-76
2024/03/08 05:55:54;;;;;;;55.00;29.10;;;1.90;54.80;;;;;;5047505;28;20390;-78
2024/03/08 05:58:19;;;;;;;54.20;30.27;;;1.80;55.60;;;;;;5041683;28;20479;-76
2024/03/08 06:00:46;;;;;;;62.35;33.80;;;1.70;55.40;;;;;;5034872;28;20434;-74
2024/03/08 06:03:11;;;;;;;58.85;32.25;;;1.80;55.80;;;;;;5032252;28;20399;-77
2024/03/08 06:05:40;;;;;;;55.67;29.93;;;1.50;57.20;;;;;;5038879;28;20452;-75
2024/03/08 06:08:07;;;;;;;54.05;29.13;;;1.60;59.50;;;;;;5044750;28;20473;-74
2024/03/08 06:10:33;;;;;;;50.20;27.55;;;1.80;58.00;;;;;;5054840;28;20960;-74
2024/03/08 06:12:59;;;;;;;63.17;33.30;;;1.60;58.50;;;;;;5031656;28;20379;-75
2024/03/08 06:15:25;;;;;;;63.60;33.20;;;1.40;59.30;;;;;;5030835;28;20391;-76
2024/03/08 06:17:52;;;;;;;73.22;37.65;;;1.40;61.40;;;;;;5030718;28;20912;-77
2024/03/08 06:20:18;;;;;;;70.45;38.08;;;1.30;61.10;;;;;;5029871;28;20403;-74
2024/03/08 06:22:44;;;;;;;59.80;32.70;;;1.60;58.70;;;;;;5031878;28;20916;-77
2024/03/08 06:25:13;;;;;;;55.83;30.60;;;1.50;58.80;;;;;;5031436;28;20402;-76
2024/03/08 06:27:46;;;;;;;54.80;29.42;;;1.80;55.50;;;;;;5033934;28;20414;-74
2024/03/08 06:30:12;;;;;;;60.60;31.73;;;1.70;55.20;;;;;;5046416;28;20513;-78
2024/03/08 06:32:38;;;;;;;56.20;32.28;;;1.60;57.00;;;;;;5052756;28;20390;-78
2024/03/08 06:35:06;;;;;;;56.60;32.45;;;1.70;57.30;;;;;;5046292;28;20386;-80
2024/03/08 06:37:35;;;;;;;53.20;30.52;;;1.60;57.80;;;;;;5046981;28;20387;-78
2024/03/08 06:40:01;;;;;;;55.45;32.05;;;1.60;58.30;;;;;;5046399;28;20402;-79
2024/03/08 06:42:28;;;;;;;54.95;31.42;;;1.80;56.60;;;;;;5046577;28;20473;-80
2024/03/08 06:44:55;;;;;;;52.50;29.43;;;2.00;57.90;;;;;;5063206;28;20477;-80
2024/03/08 06:47:22;;;;;;;58.40;29.90;;;2.10;57.00;;;;;;5046055;28;20421;-79
2024/03/08 06:49:49;;;;;;;58.55;29.17;;;2.30;56.30;;;;;;5051740;28;20789;-78
2024/03/08 06:52:15;;;;;;;60.08;29.77;;;2.40;57.20;;;;;;5051207;28;20390;-78
2024/03/08 06:54:40;;;;;;;53.47;27.17;;;2.50;57.20;;;;;;5049683;28;20379;-79
2024/03/08 06:57:06;;;;;;;48.20;26.88;;;2.60;56.00;;;;;;5047811;28;20395;-79
2024/03/08 06:59:35;;;;;;;50.78;27.10;;;2.70;54.80;;;;;;5051548;28;20422;-79
2024/03/08 07:02:02;;;;;;;49.83;25.40;;;3.00;54.40;;;;;;5050836;28;20387;-81
2024/03/08 07:04:29;;;;;;;47.60;25.70;;;3.50;53.10;;;;;;5048268;28;20383;-80
2024/03/08 07:06:57;;;;;;;49.42;24.88;;;3.60;51.10;;;;;;5047835;28;20951;-80
2024/03/08 07:09:23;;;;;;;42.45;23.10;;;3.80;50.80;;;;;;5052192;28;20391;-78
2024/03/08 07:11:54;;;;;;;50.13;23.65;;;4.20;47.30;;;;;;5056340;28;20394;-77
2024/03/08 07:14:23;;;;;;;47.35;24.48;;;4.40;45.10;;;;;;5054947;28;20439;-80
2024/03/08 07:16:50;;;;;;;49.05;25.05;;;4.60;43.60;;;;;;5049861;28;20390;-79
2024/03/08 07:19:16;;;;;;;47.50;23.60;;;4.60;43.00;;;;;;5047198;28;20467;-81
2024/03/08 07:21:47;;;;;;;43.53;23.02;;;4.90;43.30;;;;;;5045870;28;20786;-80
2024/03/08 07:26:57;;;;;;;46.72;24.00;;;5.20;41.30;;;;;;5047209;28;20413;-76
2024/03/08 07:29:23;;;;;;;48.60;23.83;;;5.40;42.70;;;;;;5049312;28;20383;-78
2024/03/08 07:32:01;;;;;;;43.37;23.63;;;5.60;39.90;;;;;;5048033;28;20387;-78
2024/03/08 07:34:29;;;;;;;42.25;23.38;;;5.60;38.90;;;;;;5051928;28;20453;-79
2024/03/08 07:36:56;;;;;;;40.60;23.48;;;5.60;39.00;;;;;;5054467;28;20385;-81
2024/03/08 07:39:23;;;;;;;46.50;23.73;;;5.70;39.40;;;;;;5052050;28;20477;-80
2024/03/08 07:41:49;;;;;;;43.05;22.73;;;5.90;38.40;;;;;;5054254;28;20421;-80
2024/03/08 07:44:14;;;;;;;44.13;23.60;;;5.90;37.30;;;;;;5050331;28;20418;-83
2024/03/08 07:46:41;;;;;;;43.15;23.42;;;5.90;38.00;;;;;;5046518;28;20418;-78
2024/03/08 07:49:10;;;;;;;45.17;22.83;;;5.90;38.50;;;;;;5049993;28;20394;-79
2024/03/08 07:51:37;;;;;;;47.47;23.85;;;6.30;36.50;;;;;;5051252;28;20377;-80
2024/03/08 07:54:04;;;;;;;44.78;22.73;;;6.40;35.80;;;;;;5046635;28;20933;-80
2024/03/08 07:56:30;;;;;;;38.67;21.55;;;6.30;35.80;;;;;;5054527;28;20457;-80
2024/03/08 07:58:56;;;;;;;44.47;23.70;;;6.40;35.70;;;;;;5049958;28;20401;-82
2024/03/08 08:01:22;;;;;;;39.65;22.02;;;6.40;36.10;;;;;;5047029;28;20430;-79
2024/03/08 08:03:48;;;;;;;43.05;22.83;;;6.50;36.00;;;;;;5037276;28;20885;-79
2024/03/08 08:06:15;;;;;;;40.10;23.20;;;6.50;36.00;;;;;;5044765;28;20387;-77
2024/03/08 08:08:44;;;;;;;52.50;23.17;;;6.50;35.80;;;;;;5067033;28;20406;-78
2024/03/08 08:11:14;;;;;;;43.22;22.33;;;6.60;35.40;;;;;;5052970;28;20455;-79
2024/03/08 08:13:43;;;;;;;41.90;22.73;;;6.70;34.00;;;;;;5039323;28;20390;-77
2024/03/08 08:16:09;;;;;;;37.55;20.85;;;6.80;34.20;;;;;;5038911;28;20411;-78
2024/03/08 08:18:35;;;;;;;41.03;21.95;;;6.90;32.60;;;;;;5035648;28;20403;-80
2024/03/08 08:21:01;;;;;;;38.38;21.17;;;6.90;34.60;;;;;;5036403;28;20419;-80
2024/03/08 08:23:26;;;;;;;39.17;20.15;;;7.10;33.90;;;;;;5036735;28;20411;-78
2024/03/08 08:25:52;;;;;;;37.22;21.35;;;7.20;32.70;;;;;;5043341;28;20474;-79
2024/03/08 08:28:18;;;;;;;39.95;21.33;;;7.30;32.30;;;;;;5039865;28;20735;-79
2024/03/08 08:30:44;;;;;;;37.10;20.13;;;7.40;33.50;;;;;;5043752;28;20734;-80
2024/03/08 08:33:10;;;;;;;33.17;19.80;;;7.40;32.50;;;;;;5039210;28;20410;-79
2024/03/08 08:35:37;;;;;;;35.72;19.73;;;7.40;31.80;;;;;;5042816;28;20391;-78
2024/03/08 08:38:04;;;;;;;35.73;20.10;;;7.50;31.90;;;;;;5049623;28;20386;-79
2024/03/08 08:40:31;;;;;;;34.40;19.42;;;7.70;32.40;;;;;;5051604;28;20391;-80
2024/03/08 08:42:58;;;;;;;29.27;18.13;;;7.80;31.60;;;;;;5052386;28;20435;-78
2024/03/08 08:45:23;;;;;;;33.80;18.85;;;7.80;30.40;;;;;;5054222;28;20398;-77
2024/03/08 08:47:49;;;;;;;32.72;18.30;;;8.00;30.50;;;;;;5053182;28;20415;-79
2024/03/08 08:50:16;;;;;;;33.77;18.20;;;7.90;30.50;;;;;;5049101;28;20383;-77
2024/03/08 08:52:43;;;;;;;34.83;18.70;;;8.20;29.20;;;;;;5052174;28;20391;-78
2024/03/08 08:55:14;;;;;;;29.77;16.73;;;8.30;29.20;;;;;;5052422;28;20379;-79
2024/03/08 08:57:42;;;;;;;31.85;17.17;;;8.30;28.70;;;;;;5042843;28;20394;-79
2024/03/08 09:00:08;;;;;;;33.22;18.38;;;8.40;28.90;;;;;;5037155;28;20457;-79
2024/03/08 09:02:34;;;;;;;38.43;18.17;;;8.40;29.70;;;;;;5036452;28;20391;-78
2024/03/08 09:05:03;;;;;;;35.85;18.40;;;8.40;28.10;;;;;;5036861;28;20881;-79
2024/03/08 09:07:29;;;;;;;29.83;17.40;;;8.60;29.10;;;;;;5034410;28;20418;-79
2024/03/08 09:09:58;;;;;;;30.23;17.00;;;8.60;27.50;;;;;;5035913;28;20383;-78
2024/03/08 09:12:24;;;;;;;29.45;17.65;;;8.60;27.50;;;;;;5035790;28;20386;-78
2024/03/08 09:14:49;;;;;;;29.85;16.27;;;8.60;27.00;;;;;;5034841;28;20384;-79
2024/03/08 09:17:20;;;;;;;28.58;16.95;;;8.70;26.80;;;;;;5036838;28;20387;-77
2024/03/08 09:19:47;;;;;;;29.60;17.10;;;8.80;27.50;;;;;;5036300;28;20425;-77
2024/03/08 09:22:13;;;;;;;28.77;16.45;;;8.90;26.10;;;;;;5037269;28;20472;-77
2024/03/08 09:24:39;;;;;;;32.55;17.50;;;8.90;27.00;;;;;;5038228;28;20429;-78
2024/03/08 09:27:05;;;;;;;29.73;16.30;;;8.90;25.90;;;;;;5042442;28;20403;-77
2024/03/08 09:29:30;;;;;;;29.92;16.45;;;9.10;26.20;;;;;;5040844;28;20769;-79
2024/03/08 09:31:56;;;;;;;30.35;16.00;;;9.10;25.50;;;;;;5036958;28;20469;-78
2024/03/08 09:34:21;;;;;;;24.98;14.85;;;9.20;25.20;;;;;;5035886;28;20394;-77
2024/03/08 09:36:47;;;;;;;26.73;15.50;;;9.20;25.00;;;;;;5036241;28;20482;-78
2024/03/08 09:39:16;;;;;;;27.55;15.30;;;9.20;25.10;;;;;;5036398;28;20393;-78
2024/03/08 09:41:47;;;;;;;26.13;15.60;;;9.20;25.00;;;;;;5035384;28;20425;-78
2024/03/08 09:44:14;;;;;;;28.63;15.52;;;9.30;24.00;;;;;;5036166;28;20387;-77
2024/03/08 09:46:40;;;;;;;26.35;15.50;;;9.40;24.00;;;;;;5035363;28;20399;-79
2024/03/08 09:49:06;;;;;;;26.13;14.88;;;9.40;23.50;;;;;;5037401;28;20410;-78
2024/03/08 09:51:35;;;;;;;24.08;14.98;;;9.40;24.30;;;;;;5038245;28;20422;-79
2024/03/08 09:54:04;;;;;;;28.63;16.10;;;9.40;23.00;;;;;;5041206;28;20478;-78
2024/03/08 09:56:38;;;;;;;26.30;15.43;;;9.40;23.90;;;;;;5041697;28;20394;-79
2024/03/08 09:59:25;;;;;;;27.42;15.13;;;9.50;24.90;;;;;;5038341;28;20417;-77
2024/03/08 10:01:52;;;;;;;26.08;15.80;;;9.60;23.40;;;;;;5042097;28;20387;-77
2024/03/08 10:04:18;;;;;;;25.13;15.27;;;9.50;22.50;;;;;;5038367;28;20821;-79
2024/03/08 10:06:43;;;;;;;31.35;15.65;;;9.50;23.10;;;;;;5055970;28;20403;-78
2024/03/08 10:09:10;;;;;;;24.65;15.75;;;9.60;23.90;;;;;;5045942;28;20386;-79
2024/03/08 10:11:35;;;;;;;30.48;15.90;;;9.70;22.00;;;;;;5039266;28;20470;-79
2024/03/08 10:14:01;;;;;;;28.00;16.10;;;9.70;24.20;;;;;;5038697;28;20441;-78
2024/03/08 10:16:28;;;;;;;30.55;16.15;;;9.80;23.20;;;;;;5039378;28;20822;-78
2024/03/08 10:18:55;;;;;;;24.88;15.38;;;9.80;23.50;;;;;;5038819;28;20441;-78
2024/03/08 10:21:21;;;;;;;23.93;14.60;;;9.90;21.90;;;;;;5038359;28;20462;-77
2024/03/08 10:23:48;;;;;;;24.03;13.83;;;9.90;21.50;;;;;;5039907;28;20431;-79
2024/03/08 10:26:18;;;;;;;27.33;14.43;;;10.00;22.30;;;;;;5042579;28;20466;-78
2024/03/08 10:28:48;;;;;;;25.75;14.43;;;10.00;21.60;;;;;;5039874;28;20403;-78
2024/03/08 10:31:19;;;;;;;26.65;14.45;;;10.10;22.80;;;;;;5040316;28;20387;-77
2024/03/08 10:33:45;;;;;;;23.13;13.98;;;10.10;21.70;;;;;;5040507;28;20735;-77
2024/03/08 10:36:12;;;;;;;25.08;14.00;;;10.10;20.60;;;;;;5040679;28;20394;-78
2024/03/08 10:38:40;;;;;;;23.70;13.90;;;10.30;22.80;;;;;;5036993;28;20458;-77
2024/03/08 10:41:06;;;;;;;25.20;14.00;;;10.20;20.40;;;;;;5040729;28;20422;-78
2024/03/08 10:43:55;;;;;;;23.33;14.05;;;10.30;20.80;;;;;;5039658;28;20390;-77
2024/03/08 10:46:46;;;;;;;21.73;12.67;;;10.40;20.00;;;;;;5040294;28;20528;-79
2024/03/08 10:49:17;;;;;;;21.95;12.80;;;10.50;19.70;;;;;;5039378;28;20881;-78
2024/03/08 10:51:43;;;;;;;20.97;13.10;;;10.60;19.40;;;;;;5036906;28;20439;-78
2024/03/08 10:54:11;;;;;;;20.27;12.55;;;10.60;19.90;;;;;;5038289;28;20449;-76
2024/03/08 10:56:37;;;;;;;25.30;13.13;;;10.70;21.40;;;;;;5038298;28;20862;-78
2024/03/08 10:59:04;;;;;;;20.85;12.50;;;10.60;19.10;;;;;;5038082;28;20410;-77
2024/03/08 11:01:30;;;;;;;20.65;12.63;;;10.60;20.10;;;;;;5039510;28;20411;-78
2024/03/08 11:03:56;;;;;;;22.80;12.68;;;10.60;19.70;;;;;;5041758;28;20379;-78
2024/03/08 11:06:42;;;;;;;20.73;12.73;;;10.50;20.00;;;;;;5039647;28;20392;-78
2024/03/08 11:09:30;;;;;;;21.73;12.77;;;10.50;20.10;;;;;;5041326;28;20470;-78
2024/03/08 11:12:18;;;;;;;22.88;12.52;;;10.80;20.00;;;;;;5038297;28;20379;-77
2024/03/08 11:14:48;;;;;;;25.55;13.57;;;10.90;20.40;;;;;;5041478;28;20399;-78
2024/03/08 11:17:17;;;;;;;22.30;12.38;;;10.90;19.10;;;;;;5046463;28;20427;-78
2024/03/08 11:19:48;;;;;;;24.35;11.90;;;11.00;19.00;;;;;;5052042;28;22517;-77
2024/03/08 11:22:26;;;;;;;21.10;12.65;;;10.90;19.10;;;;;;5048909;28;20383;-78
2024/03/08 11:24:52;;;;;;;21.05;12.90;;;11.00;18.90;;;;;;5049477;28;20429;-78
2024/03/08 11:27:20;;;;;;;21.02;12.00;;;11.10;18.40;;;;;;5052117;28;20391;-76
2024/03/08 11:30:00;;;;;;;20.50;11.83;;;11.10;18.80;;;;;;5042973;28;20391;-78
2024/03/08 11:32:29;;;;;;;20.65;12.00;;;11.10;18.10;;;;;;5042105;28;20505;-79
2024/03/08 11:34:54;;;;;;;20.02;11.75;;;11.20;18.70;;;;;;5042907;28;20912;-78
2024/03/08 11:37:21;;;;;;;20.45;11.82;;;11.30;17.90;;;;;;5043698;28;20387;-78
2024/03/08 11:39:49;;;;;;;20.48;11.80;;;11.40;18.60;;;;;;5040616;28;20402;-77
2024/03/08 11:42:17;;;;;;;22.13;12.50;;;11.50;18.60;;;;;;5055841;28;20498;-78
2024/03/08 11:44:44;;;;;;;22.55;12.85;;;11.60;18.60;;;;;;5040001;28;20525;-78
2024/03/08 11:47:10;;;;;;;25.15;12.95;;;11.60;18.20;;;;;;5039445;28;20403;-78
2024/03/08 11:49:36;;;;;;;31.83;13.60;;;11.60;17.30;;;;;;5040087;28;20731;-78
2024/03/08 11:52:02;;;;;;;21.88;12.60;;;11.60;18.40;;;;;;5040492;28;20398;-78
2024/03/08 11:54:29;;;;;;;21.13;12.45;;;11.70;17.60;;;;;;5046166;28;20395;-80
2024/03/08 11:57:00;;;;;;;29.05;12.10;;;11.80;16.90;;;;;;5044425;28;20387;-79
2024/03/08 11:59:30;;;;;;;23.85;12.63;;;11.80;16.10;;;;;;5042114;28;20406;-79
2024/03/08 12:02:01;;;;;;;21.40;11.93;;;11.70;16.60;;;;;;5044430;28;20395;-78
2024/03/08 12:04:27;;;;;;;19.80;11.90;;;11.70;17.60;;;;;;5044912;28;20444;-79
2024/03/08 12:06:53;;;;;;;20.48;11.70;;;11.70;17.30;;;;;;5047197;28;20390;-78
2024/03/08 12:09:19;;;;;;;19.30;12.00;;;11.80;16.90;;;;;;5046667;28;20479;-77
2024/03/08 12:11:47;;;;;;;21.40;12.27;;;11.80;16.60;;;;;;5041689;28;20422;-79
2024/03/08 12:14:13;;;;;;;20.27;12.15;;;11.90;16.90;;;;;;5042945;28;20489;-78
2024/03/08 12:16:39;;;;;;;18.27;11.57;;;12.00;17.00;;;;;;5043117;28;20459;-78
2024/03/08 12:19:05;;;;;;;17.77;11.10;;;11.90;17.20;;;;;;5042723;28;20516;-78
2024/03/08 12:21:32;;;;;;;18.95;10.73;;;12.00;16.90;;;;;;5043976;28;20409;-79
2024/03/08 12:24:09;;;;;;;18.15;10.57;;;12.10;15.90;;;;;;5043064;28;20395;-80
2024/03/08 12:26:38;;;;;;;17.70;11.02;;;12.00;16.30;;;;;;5041036;28;20387;-77
2024/03/08 12:29:22;;;;;;;18.75;10.65;;;12.00;16.40;;;;;;5044612;28;20371;-78
2024/03/08 12:31:52;;;;;;;19.58;11.30;;;12.10;15.40;;;;;;5044010;28;20501;-80
2024/03/08 12:34:18;;;;;;;19.02;10.52;;;12.30;17.10;;;;;;5040472;28;20395;-78
2024/03/08 12:36:47;;;;;;;18.73;10.77;;;12.30;15.00;;;;;;5042102;28;20454;-78
2024/03/08 12:39:15;;;;;;;17.75;10.25;;;12.40;15.60;;;;;;5043804;28;20391;-78